Time;durP1;ratioP1;P1;durP2;ratioP2;P2;SDS_P1;SDS_P2;PMS_P1;PMS_P2;Temp;Humidity;BMP_temperature;BMP_pressure;BME280_temperature;BME280_humidity;BME280_pressure;Samples;Min_cycle;Max_cycle;Signal;HPM_P1;HPM_P2
2022/12/20 00:00:07;;;;;;;3.47;1.90;;;;;;;8.75;100.00;101306.75;6181452;23;20245;-89
2022/12/20 00:02:33;;;;;;;3.10;1.77;;;;;;;8.74;100.00;101310.47;6182896;23;20009;-89
2022/12/20 00:04:58;;;;;;;6.40;1.60;;;;;;;8.77;100.00;101312.66;6182302;23;20311;-90
2022/12/20 00:07:23;;;;;;;1.93;1.40;;;;;;;8.79;100.00;101326.59;6182480;23;20001;-89
2022/12/20 00:09:58;;;;;;;3.73;1.50;;;;;;;8.78;100.00;101311.63;6181602;23;20000;-89
2022/12/20 00:12:26;;;;;;;5.50;1.88;;;;;;;8.88;100.00;101314.53;6182510;23;20005;-89
2022/12/20 00:14:51;;;;;;;3.45;1.60;;;;;;;9.00;100.00;101319.84;6182507;23;20015;-90
2022/12/20 00:17:16;;;;;;;2.53;1.70;;;;;;;9.09;100.00;101314.97;6182695;23;20005;-89
2022/12/20 00:19:46;;;;;;;2.87;1.80;;;;;;;9.11;100.00;101318.22;6181200;23;20009;-88
2022/12/20 00:22:11;;;;;;;2.50;1.60;;;;;;;9.15;100.00;101314.00;6182827;23;20334;-89
2022/12/20 00:24:37;;;;;;;3.63;1.50;;;;;;;9.15;100.00;101297.16;6182694;23;20015;-89
2022/12/20 00:27:02;;;;;;;2.60;1.55;;;;;;;9.12;100.00;101290.44;6182360;23;20009;-89
2022/12/20 00:29:28;;;;;;;1.73;1.27;;;;;;;9.12;100.00;101292.28;6182771;23;20307;-89
2022/12/20 00:31:53;;;;;;;6.87;1.70;;;;;;;9.11;100.00;101299.50;6155657;23;20039;-89
2022/12/20 00:34:19;;;;;;;2.27;1.60;;;;;;;9.08;100.00;101278.56;6188223;23;20016;-89
2022/12/20 00:36:50;;;;;;;4.40;1.77;;;;;;;9.16;100.00;101288.09;6184304;22;20140;-89
2022/12/20 00:39:15;;;;;;;3.67;1.58;;;;;;;9.13;100.00;101277.88;6182334;23;20006;-90
2022/12/20 00:41:41;;;;;;;3.10;1.60;;;;;;;9.15;100.00;101273.09;6181975;23;20008;-90
2022/12/20 00:44:06;;;;;;;4.78;1.92;;;;;;;9.22;100.00;101263.88;6156085;23;20019;-91
2022/12/20 00:46:34;;;;;;;3.70;1.57;;;;;;;9.29;100.00;101270.97;6181652;23;20096;-90
2022/12/20 00:49:00;;;;;;;2.42;1.60;;;;;;;9.37;100.00;101267.91;6180668;23;20422;-89
2022/12/20 00:51:28;;;;;;;1.97;1.43;;;;;;;9.45;100.00;101264.84;6180822;23;20009;-90
2022/12/20 00:53:54;;;;;;;4.80;1.33;;;;;;;9.41;100.00;101261.03;6182357;23;20039;-90
2022/12/20 00:56:19;;;;;;;2.83;1.60;;;;;;;9.34;100.00;101257.66;6155369;23;20089;-90
2022/12/20 00:58:46;;;;;;;3.20;1.50;;;;;;;9.36;100.00;101282.31;6182542;23;20008;-89
2022/12/20 01:01:22;;;;;;;3.85;1.70;;;;;;;9.39;100.00;101281.84;6181739;23;20032;-89
2022/12/20 01:03:49;;;;;;;2.80;1.30;;;;;;;9.43;100.00;101272.31;6182394;23;20001;-89
2022/12/20 01:06:15;;;;;;;4.22;1.80;;;;;;;9.46;100.00;101277.19;6181590;23;20001;-90
2022/12/20 01:08:41;;;;;;;5.23;1.73;;;;;;;9.47;100.00;101278.81;6181943;23;20041;-89
2022/12/20 01:11:10;;;;;;;2.20;1.43;;;;;;;9.43;100.00;101276.81;6181898;23;20714;-89
2022/12/20 01:13:38;;;;;;;3.08;1.67;;;;;;;9.31;100.00;101274.22;6182065;23;20393;-89
2022/12/20 01:16:15;;;;;;;3.58;1.50;;;;;;;9.20;100.00;101281.22;6181922;23;20012;-91
2022/12/20 01:18:41;;;;;;;3.85;1.50;;;;;;;9.11;100.00;101291.47;6181818;23;20012;-90
2022/12/20 01:21:09;;;;;;;2.83;1.63;;;;;;;9.03;100.00;101289.16;6181498;23;20009;-90
2022/12/20 01:23:35;;;;;;;2.47;1.48;;;;;;;9.00;100.00;101284.28;6182901;23;20023;-91
2022/12/20 01:26:03;;;;;;;2.13;1.50;;;;;;;8.99;100.00;101278.13;6182166;23;20088;-91
2022/12/20 01:28:29;;;;;;;6.13;1.80;;;;;;;8.89;100.00;101262.69;6182574;23;20426;-92
2022/12/20 01:30:54;;;;;;;4.97;1.98;;;;;;;8.77;100.00;101269.91;6182415;23;20001;-92
2022/12/20 01:33:20;;;;;;;4.13;1.93;;;;;;;8.68;100.00;101276.66;6182254;23;20005;-92
2022/12/20 01:35:55;;;;;;;5.23;1.90;;;;;;;8.57;100.00;101265.78;6184772;23;20040;-93
2022/12/20 01:38:20;;;;;;;3.38;1.73;;;;;;;8.50;100.00;101283.75;6184314;23;20059;-93
2022/12/20 01:40:46;;;;;;;6.80;2.17;;;;;;;8.47;100.00;101282.34;6184643;23;20421;-93
2022/12/20 01:43:14;;;;;;;5.20;2.33;;;;;;;8.44;100.00;101266.78;6185699;23;20012;-94
2022/12/20 01:45:39;;;;;;;6.70;2.38;;;;;;;8.41;100.00;101269.09;6185663;23;20001;-93
2022/12/20 01:48:06;;;;;;;3.70;2.60;;;;;;;8.33;100.00;101260.41;6160503;23;20079;-94
2022/12/20 01:50:36;;;;;;;6.40;2.60;;;;;;;8.35;100.00;101262.81;6189804;23;20244;-91
2022/12/20 01:53:03;;;;;;;5.45;2.38;;;;;;;8.37;100.00;101254.59;6199213;23;20001;-92
2022/12/20 01:55:29;;;;;;;7.78;3.22;;;;;;;8.32;100.00;101239.25;6201641;23;20008;-92
2022/12/20 01:58:04;;;;;;;6.15;2.55;;;;;;;8.33;100.00;101246.22;6200205;23;20013;-91
2022/12/20 02:00:29;;;;;;;4.03;2.40;;;;;;;8.29;100.00;101243.19;6204499;23;20005;-91
2022/12/20 02:02:59;;;;;;;3.50;2.53;;;;;;;8.29;100.00;101243.19;6202366;23;20005;-92
2022/12/20 02:05:24;;;;;;;4.70;2.42;;;;;;;8.26;100.00;101229.50;6190699;23;20001;-92
2022/12/20 02:07:53;;;;;;;4.00;2.20;;;;;;;8.30;100.00;101236.81;6189700;23;20007;-92
2022/12/20 02:10:21;;;;;;;5.83;2.23;;;;;;;8.28;100.00;101241.56;6195208;23;20024;-92
2022/12/20 02:22:34;;;;;;;5.60;2.33;;;;;;;8.24;100.00;101226.25;6107755;23;20018;-92
2022/12/20 02:28:27;;;;;;;3.13;2.00;;;;;;;8.24;100.00;101187.00;6152126;22;20056;-91
2022/12/20 02:36:45;;;;;;;4.50;2.40;;;;;;;8.11;100.00;101188.09;6186444;22;20070;-93
2022/12/20 02:42:43;;;;;;;;;;;;;;;;;;;;;
2022/12/20 02:52:12;;;;;;;;;;;;;;;;;;;;;
2022/12/20 02:55:03;;;;;;;3.42;2.00;;;;;;;8.49;100.00;101177.97;6090378;23;20085;-92
2022/12/20 03:03:43;;;;;;;2.85;1.85;;;;;;;8.54;100.00;101169.25;6186638;23;20020;-92
2022/12/20 03:06:31;;;;;;;;;;;;;;;;;;;;;
2022/12/20 03:12:18;;;;;;;3.33;1.90;;;;;;;8.62;100.00;101176.91;6182888;22;20080;-92
2022/12/20 03:53:12;;;;;;;3.55;1.33;;;;;;;9.31;100.00;101185.97;6226306;23;20035;-91
2022/12/20 04:40:09;;;;;;;6.00;1.90;;;;;;;9.71;100.00;101163.59;6172381;22;20009;-93
2022/12/20 04:43:28;;;;;;;;;;;;;;;;;;;;;
2022/12/20 04:45:55;;;;;;;4.03;1.50;;;;;;;9.64;100.00;101142.38;6138354;22;20012;-92
2022/12/20 04:48:38;;;;;;;;;;;;;;;;;;;;;
2022/12/20 05:29:18;;;;;;;2.85;1.55;;;;;;;9.62;100.00;101090.16;6203594;22;20110;-89
2022/12/20 05:31:44;;;;;;;6.47;1.50;;;;;;;9.72;100.00;101103.69;6176393;23;20004;-86
2022/12/20 05:34:09;;;;;;;5.55;1.70;;;;;;;9.68;100.00;101103.38;6199630;23;20009;-86
2022/12/20 05:36:35;;;;;;;2.70;1.43;;;;;;;9.67;100.00;101112.44;6169435;23;20005;-86
2022/12/20 05:39:00;;;;;;;6.20;1.70;;;;;;;9.66;100.00;101107.34;6192249;23;20001;-90
2022/12/20 05:41:25;;;;;;;4.60;1.57;;;;;;;9.66;100.00;101110.03;6183965;23;20008;-89
2022/12/20 05:43:51;;;;;;;3.30;1.43;;;;;;;9.66;100.00;101099.31;6184927;23;20005;-95
2022/12/20 05:55:26;;;;;;;2.92;1.30;;;;;;;9.68;100.00;101095.34;6126395;23;20145;-94
2022/12/20 06:02:07;;;;;;;3.85;1.63;;;;;;;9.71;100.00;101088.69;6195739;23;20017;-94
2022/12/20 06:23:17;;;;;;;4.10;1.60;;;;;;;9.58;100.00;101057.75;6201832;23;20016;-92
2022/12/20 06:26:23;;;;;;;;;;;;;;;;;;;;;
2022/12/20 06:29:25;;;;;;;4.03;1.30;;;;;;;9.49;100.00;101049.31;6186247;23;20351;-88
2022/12/20 06:31:50;;;;;;;3.25;1.80;;;;;;;9.35;100.00;101046.16;6188405;23;20005;-90
2022/12/20 06:34:31;;;;;;;2.35;1.50;;;;;;;9.26;100.00;101041.47;6189595;23;20032;-90
2022/12/20 06:37:11;;;;;;;2.85;1.55;;;;;;;9.34;100.00;101052.56;6187933;23;20032;-90
2022/12/20 06:39:46;;;;;;;4.07;1.70;;;;;;;9.21;100.00;101045.69;6190235;23;20001;-90
2022/12/20 07:08:01;;;;;;;4.10;1.38;;;;;;;9.34;100.00;101049.06;6196882;22;20049;-91
2022/12/20 07:10:27;;;;;;;1.70;1.13;;;;;;;9.34;100.00;101043.72;6185731;23;20484;-95
2022/12/20 07:12:52;;;;;;;3.85;1.30;;;;;;;9.41;100.00;101047.06;6186802;23;20005;-96
2022/12/20 07:15:17;;;;;;;4.10;1.30;;;;;;;9.42;100.00;101040.66;6186430;23;20008;-94
2022/12/20 07:17:43;;;;;;;2.53;1.30;;;;;;;9.46;100.00;101047.13;6186258;23;20001;-94
2022/12/20 07:20:09;;;;;;;3.47;1.42;;;;;;;9.47;100.00;101059.44;6185931;23;20007;-93
2022/12/20 07:22:34;;;;;;;3.83;1.30;;;;;;;9.51;100.00;101065.91;6186656;23;20027;-93
2022/12/20 07:25:00;;;;;;;5.75;1.52;;;;;;;9.54;100.00;101057.41;6186425;23;20007;-92
2022/12/20 08:29:48;;;;;;;3.22;1.45;;;;;;;9.41;100.00;101065.78;6185567;23;20380;-92
2022/12/20 08:32:14;;;;;;;4.65;1.20;;;;;;;9.34;100.00;101071.28;6158060;23;20005;-92
2022/12/20 08:35:07;;;;;;;2.65;1.02;;;;;;;9.15;100.00;101065.34;6182689;23;20013;-94
2022/12/20 08:37:32;;;;;;;3.83;1.30;;;;;;;9.23;100.00;101077.50;6182402;23;20009;-94
2022/12/20 08:40:08;;;;;;;5.87;1.30;;;;;;;9.12;100.00;101068.53;6183144;23;20062;-93
2022/12/20 08:42:33;;;;;;;4.88;1.55;;;;;;;9.05;100.00;101063.31;6183298;23;20012;-93
2022/12/20 08:45:05;;;;;;;5.53;1.60;;;;;;;9.04;100.00;101067.03;6184442;23;20001;-93
2022/12/20 08:47:30;;;;;;;3.55;1.60;;;;;;;9.06;100.00;101064.94;6182574;23;20001;-96
2022/12/20 08:49:56;;;;;;;4.73;2.33;;;;;;;8.99;100.00;101055.47;6183164;23;20004;-94
2022/12/20 08:52:24;;;;;;;7.40;2.13;;;;;;;8.97;100.00;101060.22;6184227;23;20397;-95
2022/12/20 08:54:49;;;;;;;3.03;1.30;;;;;;;8.90;100.00;101061.22;6184431;23;20056;-95
2022/12/20 08:57:14;;;;;;;3.47;1.13;;;;;;;8.72;100.00;101042.72;6187469;23;20009;-95
2022/12/20 08:59:40;;;;;;;4.27;2.00;;;;;;;8.64;100.00;101041.25;6189141;23;20025;-94
2022/12/20 09:02:05;;;;;;;2.37;1.80;;;;;;;8.64;100.00;101047.38;6188860;23;20328;-94
2022/12/20 09:04:31;;;;;;;3.70;1.90;;;;;;;8.63;100.00;101053.78;6188710;23;20060;-93
2022/12/20 09:10:32;;;;;;;3.67;1.70;;;;;;;8.51;100.00;101033.50;6182577;23;20586;-96
2022/12/20 09:13:00;;;;;;;5.30;2.00;;;;;;;8.51;100.00;101033.50;6183752;23;20017;-94
2022/12/20 09:23:11;;;;;;;5.10;2.17;;;;;;;8.63;100.00;101043.09;6183327;22;20028;-94
2022/12/20 09:25:36;;;;;;;3.45;2.45;;;;;;;8.70;100.00;101044.81;6159553;23;20210;-95
2022/12/20 09:31:25;;;;;;;3.13;2.00;;;;;;;8.79;100.00;101024.66;6183000;23;20028;-94
2022/12/20 09:33:55;;;;;;;4.55;2.00;;;;;;;8.99;100.00;101039.41;6182259;23;20071;-94
2022/12/20 09:36:33;;;;;;;6.65;2.40;;;;;;;9.03;100.00;101043.22;6183588;23;20013;-94
2022/12/20 09:39:38;;;;;;;4.83;2.00;;;;;;;9.17;100.00;101052.56;6182442;23;20076;-95
2022/12/20 09:42:08;;;;;;;3.55;1.65;;;;;;;9.27;100.00;101045.75;6182911;23;20031;-95
2022/12/20 09:47:18;;;;;;;3.38;1.48;;;;;;;9.23;100.00;101030.19;6182918;23;19964;-93
2022/12/20 09:49:49;;;;;;;3.17;1.60;;;;;;;9.36;100.00;101031.75;6155528;23;20014;-93
2022/12/20 09:52:18;;;;;;;4.72;2.03;;;;;;;9.44;100.00;101043.06;6182796;23;20084;-94
2022/12/20 09:54:46;;;;;;;4.45;2.10;;;;;;;9.42;100.00;101047.84;6182720;23;20009;-94
2022/12/20 10:00:39;;;;;;;4.67;1.53;;;;;;;9.31;100.00;101038.88;6187201;23;20024;-95
2022/12/20 10:03:06;;;;;;;3.17;1.75;;;;;;;9.30;100.00;101030.03;6185955;23;20016;-94
2022/12/20 10:05:54;;;;;;;3.63;1.50;;;;;;;9.38;100.00;101039.50;6185838;23;20500;-94
2022/12/20 10:08:32;;;;;;;5.03;1.80;;;;;;;9.46;100.00;101041.78;6184028;23;20005;-93
2022/12/20 10:11:14;;;;;;;4.00;1.50;;;;;;;9.51;100.00;101030.34;6188732;23;20469;-94
2022/12/20 10:13:52;;;;;;;2.30;1.80;;;;;;;9.60;100.00;101033.41;6207640;23;20057;-94
2022/12/20 10:16:35;;;;;;;4.22;1.70;;;;;;;9.68;100.00;101027.63;6189744;23;20008;-94
2022/12/20 10:19:13;;;;;;;3.03;1.73;;;;;;;9.81;100.00;101031.81;6203978;23;20032;-93
2022/12/20 10:21:49;;;;;;;2.43;1.50;;;;;;;9.93;100.00;101031.69;6205232;23;20240;-93
2022/12/20 10:24:24;;;;;;;3.30;2.00;;;;;;;10.03;100.00;101029.16;6203536;23;20065;-94
2022/12/20 10:29:25;;;;;;;3.80;1.45;;;;;;;10.25;100.00;101036.38;6200739;22;20055;-94
2022/12/20 10:31:59;;;;;;;4.47;1.60;;;;;;;10.28;100.00;101033.19;6189873;23;20476;-94
2022/12/20 10:34:24;;;;;;;3.35;1.55;;;;;;;10.36;100.00;101034.63;6214653;23;20060;-93
2022/12/20 10:37:18;;;;;;;5.83;1.57;;;;;;;10.25;100.00;101020.28;6188308;22;20044;-95
2022/12/20 10:39:48;;;;;;;3.00;1.40;;;;;;;10.21;100.00;101016.53;6157499;23;20084;-94
2022/12/20 10:42:35;;;;;;;4.20;1.55;;;;;;;10.25;100.00;101031.84;6184914;23;20001;-94
2022/12/20 10:45:03;;;;;;;5.20;1.77;;;;;;;10.03;100.00;101015.78;6184164;23;20036;-95
2022/12/20 10:47:58;;;;;;;3.07;1.60;;;;;;;9.95;100.00;101022.34;6184691;23;20011;-93
2022/12/20 10:50:24;;;;;;;4.88;1.58;;;;;;;9.95;100.00;101013.53;6162833;23;20011;-93
2022/12/20 10:53:23;;;;;;;6.03;1.77;;;;;;;9.96;100.00;101020.50;6184652;23;20080;-93
2022/12/20 10:55:49;;;;;;;3.17;1.65;;;;;;;9.94;100.00;101020.75;6135159;23;20012;-92
2022/12/20 10:58:34;;;;;;;3.13;1.58;;;;;;;9.84;100.00;101010.75;6184084;23;20441;-94
2022/12/20 11:01:21;;;;;;;3.92;1.98;;;;;;;9.75;100.00;101017.56;6184065;23;20570;-93
2022/12/20 11:03:56;;;;;;;5.33;2.00;;;;;;;9.66;100.00;101008.34;6184506;23;20332;-93
2022/12/20 11:06:26;;;;;;;4.77;2.00;;;;;;;9.61;100.00;101018.97;6184109;23;20664;-93
2022/12/20 11:08:52;;;;;;;4.13;2.00;;;;;;;9.50;100.00;100999.28;6184714;23;20031;-94
2022/12/20 11:11:20;;;;;;;3.38;1.95;;;;;;;9.45;100.00;100999.22;6182649;23;20046;-93
2022/12/20 11:13:47;;;;;;;8.53;2.37;;;;;;;9.42;100.00;101008.56;6185379;23;20009;-94
2022/12/20 11:16:23;;;;;;;3.73;2.10;;;;;;;9.40;100.00;101005.31;6185680;23;20248;-94
2022/12/20 11:19:24;;;;;;;6.70;2.30;;;;;;;9.41;100.00;101009.59;6158307;23;20044;-94
2022/12/20 11:22:08;;;;;;;6.45;2.25;;;;;;;9.42;100.00;101000.53;6184967;23;20005;-92
2022/12/20 11:27:55;;;;;;;5.85;2.28;;;;;;;9.38;100.00;100988.69;6185535;22;20021;-93
2022/12/20 11:34:02;;;;;;;9.93;2.65;;;;;;;9.30;100.00;100984.56;6183962;23;20095;-93
2022/12/20 11:36:55;;;;;;;4.30;2.37;;;;;;;9.40;100.00;101000.75;6158813;23;20345;-92
2022/12/20 11:39:30;;;;;;;4.50;2.50;;;;;;;9.46;100.00;100982.13;6183990;23;20541;-93
2022/12/20 11:42:07;;;;;;;7.53;2.30;;;;;;;9.51;100.00;100984.88;6184375;23;19997;-93
2022/12/20 11:44:45;;;;;;;7.65;3.08;;;;;;;9.50;100.00;100989.38;6182971;23;20009;-93
2022/12/20 11:47:38;;;;;;;7.32;2.63;;;;;;;9.46;100.00;100982.13;6181689;23;20007;-93
2022/12/20 11:50:31;;;;;;;3.35;2.35;;;;;;;9.41;100.00;100972.16;6182202;23;20092;-93
2022/12/20 11:53:01;;;;;;;5.65;2.40;;;;;;;9.36;100.00;100978.25;6183378;23;20032;-95
2022/12/20 11:55:31;;;;;;;6.70;2.60;;;;;;;9.34;100.00;100968.84;6182853;23;20008;-94
2022/12/20 11:58:03;;;;;;;8.67;2.77;;;;;;;9.35;100.00;100968.59;6181695;23;20001;-93
2022/12/20 12:00:34;;;;;;;7.80;3.30;;;;;;;9.29;100.00;100964.22;6183913;23;20701;-94
2022/12/20 12:03:18;;;;;;;4.13;3.08;;;;;;;9.29;100.00;100966.13;6157382;23;20001;-94
2022/12/20 12:06:06;;;;;;;5.10;2.80;;;;;;;9.30;100.00;100960.50;6182100;23;20009;-90
2022/12/20 12:08:41;;;;;;;4.32;3.20;;;;;;;9.36;100.00;100956.03;6182856;23;20484;-90
2022/12/20 12:11:31;;;;;;;3.67;2.80;;;;;;;9.37;100.00;100963.81;6183331;23;20172;-90
2022/12/20 12:19:00;;;;;;;6.28;3.25;;;;;;;9.43;100.00;100951.31;6190716;23;20044;-93
2022/12/20 12:21:31;;;;;;;9.67;3.70;;;;;;;9.55;100.00;100962.72;6188744;23;20044;-93
2022/12/20 12:24:14;;;;;;;5.80;3.10;;;;;;;9.53;100.00;100961.34;6188348;23;20253;-94
2022/12/20 12:26:40;;;;;;;4.82;3.00;;;;;;;9.51;100.00;100956.22;6162359;23;20012;-93
2022/12/20 12:29:09;;;;;;;4.88;3.28;;;;;;;9.49;100.00;100947.69;6164273;23;20342;-91
2022/12/20 12:31:53;;;;;;;8.82;4.20;;;;;;;9.48;100.00;100945.22;6185530;23;20009;-91
2022/12/20 12:34:28;;;;;;;5.93;3.27;;;;;;;9.46;100.00;100956.19;6184156;23;20009;-92
2022/12/20 12:36:53;;;;;;;6.27;3.73;;;;;;;9.47;100.00;100963.16;6183000;23;20902;-92
2022/12/20 12:39:19;;;;;;;8.70;3.95;;;;;;;9.49;100.00;100954.88;6183679;23;20012;-92
2022/12/20 12:41:47;;;;;;;5.00;3.30;;;;;;;9.47;100.00;100956.97;6183243;23;20005;-93
2022/12/20 12:44:19;;;;;;;7.50;3.63;;;;;;;9.49;100.00;100960.22;6182721;23;20001;-93
2022/12/20 12:46:51;;;;;;;9.00;3.43;;;;;;;9.46;100.00;100950.84;6185230;23;20118;-92
2022/12/20 12:49:23;;;;;;;6.87;3.60;;;;;;;9.46;100.00;100961.53;6183695;23;20311;-93
2022/12/20 12:51:52;;;;;;;12.10;3.80;;;;;;;9.44;100.00;100958.31;6184350;23;20134;-92
2022/12/20 12:54:22;;;;;;;10.88;3.97;;;;;;;9.45;100.00;100953.75;6185737;23;20015;-93
2022/12/20 12:56:49;;;;;;;10.20;4.05;;;;;;;9.43;100.00;100937.97;6186127;23;20009;-92
2022/12/20 12:59:22;;;;;;;7.00;3.80;;;;;;;9.44;100.00;100947.59;6193430;23;20178;-92
2022/12/20 13:02:10;;;;;;;7.03;4.13;;;;;;;9.42;100.00;100955.06;6194217;23;20384;-91
2022/12/20 13:05:04;;;;;;;5.00;3.85;;;;;;;9.40;100.00;100946.47;6168325;23;20252;-92
2022/12/20 13:07:33;;;;;;;6.07;4.47;;;;;;;9.40;100.00;100951.81;6202841;23;20020;-92
2022/12/20 13:10:01;;;;;;;9.50;4.40;;;;;;;9.37;100.00;100939.75;6207235;23;20004;-92
2022/12/20 13:12:35;;;;;;;7.83;4.10;;;;;;;9.36;100.00;100935.47;6204180;23;20245;-93
2022/12/20 13:15:20;;;;;;;7.35;4.18;;;;;;;9.37;100.00;100936.25;6198131;23;20013;-93
2022/12/20 13:17:49;;;;;;;8.15;4.43;;;;;;;9.32;100.00;100939.69;6192639;23;20009;-93
2022/12/20 13:20:21;;;;;;;8.60;4.40;;;;;;;9.34;100.00;100937.56;6188793;23;20005;-93
2022/12/20 13:23:11;;;;;;;7.32;4.40;;;;;;;9.34;100.00;100948.28;6184403;23;20016;-93
2022/12/20 13:25:48;;;;;;;11.27;4.25;;;;;;;9.30;100.00;100946.34;6183468;23;20008;-92
2022/12/20 13:28:23;;;;;;;9.20;4.53;;;;;;;9.28;100.00;100941.22;6187938;23;20012;-93
2022/12/20 13:31:11;;;;;;;7.47;4.63;;;;;;;9.27;100.00;100942.28;6185104;23;20009;-93
2022/12/20 13:33:46;;;;;;;7.13;4.60;;;;;;;9.24;100.00;100946.25;6175718;23;20019;-93
2022/12/20 13:36:12;;;;;;;7.97;4.43;;;;;;;9.24;100.00;100946.25;6186773;23;20012;-96
2022/12/20 13:38:46;;;;;;;8.48;4.30;;;;;;;9.22;100.00;100947.56;6191733;23;20005;-95
2022/12/20 13:41:50;;;;;;;7.10;3.80;;;;;;;9.18;100.00;100939.22;6193511;23;20005;-93
2022/12/20 13:44:16;;;;;;;6.63;4.47;;;;;;;9.17;100.00;100942.13;6111389;23;20014;-93
2022/12/20 13:46:59;;;;;;;6.90;4.13;;;;;;;9.11;100.00;100938.59;6110465;23;20010;-94
2022/12/20 13:49:28;;;;;;;8.40;4.53;;;;;;;9.07;100.00;100938.25;6170921;23;20040;-95
2022/12/20 13:52:20;;;;;;;7.25;4.03;;;;;;;9.07;100.00;100932.09;6194005;23;20061;-95
2022/12/20 13:54:53;;;;;;;4.97;3.75;;;;;;;9.08;100.00;100933.72;6183662;23;20013;-94
2022/12/20 13:57:41;;;;;;;5.78;4.10;;;;;;;9.04;100.00;100932.59;6184221;23;20004;-96
2022/12/20 14:00:15;;;;;;;7.60;3.60;;;;;;;9.05;100.00;100943.03;6184807;23;20048;-95
2022/12/20 14:02:42;;;;;;;6.90;3.50;;;;;;;9.05;100.00;100947.56;6190446;23;20088;-94
2022/12/20 14:05:31;;;;;;;7.43;3.77;;;;;;;9.02;100.00;100929.34;6170526;23;20305;-95
2022/12/20 14:07:59;;;;;;;4.70;3.40;;;;;;;9.01;100.00;100930.41;6184151;23;20001;-95
2022/12/20 14:10:27;;;;;;;6.63;3.60;;;;;;;9.01;100.00;100933.06;6182782;23;20035;-96
2022/12/20 14:12:55;;;;;;;7.07;3.78;;;;;;;8.99;100.00;100938.69;6183388;23;20001;-96
2022/12/20 14:15:47;;;;;;;6.40;3.55;;;;;;;8.96;100.00;100933.81;6182869;23;20012;-95
2022/12/20 14:18:21;;;;;;;7.13;4.03;;;;;;;8.96;100.00;100935.66;6181814;23;20013;-95
2022/12/20 14:20:54;;;;;;;8.52;4.10;;;;;;;8.93;100.00;100935.13;6182430;23;20008;-96
2022/12/20 14:23:22;;;;;;;7.00;4.55;;;;;;;8.94;100.00;100936.75;6181964;23;20009;-94
2022/12/20 14:25:59;;;;;;;7.83;4.30;;;;;;;8.92;100.00;100927.34;6182351;23;20223;-95
2022/12/20 14:28:43;;;;;;;8.45;4.95;;;;;;;8.91;100.00;100931.88;6157452;23;20001;-95
2022/12/20 14:31:28;;;;;;;10.93;4.70;;;;;;;8.91;100.00;100934.56;6181984;23;20330;-94
2022/12/20 14:34:05;;;;;;;7.53;4.20;;;;;;;8.88;100.00;100929.69;6183801;23;20454;-94
2022/12/20 14:36:31;;;;;;;8.13;4.47;;;;;;;8.87;100.00;100930.75;6186358;23;20012;-94
2022/12/20 14:38:57;;;;;;;8.23;5.10;;;;;;;8.86;100.00;100942.47;6193647;23;20005;-93
2022/12/20 14:41:35;;;;;;;8.75;4.45;;;;;;;8.81;100.00;100926.38;6189206;23;20005;-95
2022/12/20 14:44:06;;;;;;;6.22;4.47;;;;;;;8.83;100.00;100934.16;6187912;23;20004;-94
2022/12/20 14:46:36;;;;;;;9.07;4.80;;;;;;;8.77;100.00;100922.53;6189389;23;20005;-94
2022/12/20 14:49:29;;;;;;;11.85;5.05;;;;;;;8.79;100.00;100931.97;6190089;23;20329;-96
2022/12/20 14:52:21;;;;;;;10.05;4.97;;;;;;;8.79;100.00;100939.16;6188806;23;20009;-95
2022/12/20 14:54:56;;;;;;;9.38;5.07;;;;;;;8.78;100.00;100933.00;6188099;23;20086;-96
2022/12/20 14:57:21;;;;;;;9.33;5.00;;;;;;;8.75;100.00;100925.47;6184738;23;20005;-95
2022/12/20 15:00:18;;;;;;;10.87;5.10;;;;;;;8.77;100.00;100933.22;6184271;23;20237;-96
2022/12/20 15:02:55;;;;;;;7.83;4.70;;;;;;;8.75;100.00;100920.13;6185436;23;20084;-95
2022/12/20 15:05:39;;;;;;;7.03;4.70;;;;;;;8.74;100.00;100918.50;6184692;22;20276;-96
2022/12/20 15:08:22;;;;;;;10.07;5.18;;;;;;;8.71;100.00;100913.66;6191736;23;20009;-95
2022/12/20 15:10:53;;;;;;;9.38;4.97;;;;;;;8.70;100.00;100911.22;6192057;23;20001;-96
2022/12/20 15:13:21;;;;;;;12.75;5.47;;;;;;;8.70;100.00;100906.69;6190901;23;20001;-95
2022/12/20 15:15:46;;;;;;;13.60;6.13;;;;;;;8.67;100.00;100901.03;6185678;23;20002;-96
2022/12/20 15:18:13;;;;;;;10.13;5.60;;;;;;;8.66;100.00;100896.72;6184563;23;20113;-94
2022/12/20 15:20:41;;;;;;;8.47;6.20;;;;;;;8.65;100.00;100898.63;6184733;23;20371;-94
2022/12/20 15:23:13;;;;;;;11.25;6.72;;;;;;;8.64;100.00;100897.78;6159162;23;20040;-95
2022/12/20 15:35:59;;;;;;;11.40;7.50;;;;;;;8.52;100.00;100894.38;6198897;22;20017;-96
2022/12/20 15:38:26;;;;;;;9.87;6.60;;;;;;;8.53;100.00;100895.19;6184889;23;20019;-95
2022/12/20 15:40:54;;;;;;;12.25;7.15;;;;;;;8.57;100.00;100907.00;6184187;23;20008;-96
2022/12/20 15:43:22;;;;;;;11.95;7.20;;;;;;;8.59;100.00;100916.38;6186343;23;20011;-96
2022/12/20 15:46:30;;;;;;;12.60;6.83;;;;;;;8.59;100.00;100907.59;6156320;23;20460;-96
2022/12/20 15:52:27;;;;;;;15.98;7.00;;;;;;;8.53;100.00;100904.03;6155651;23;20074;-96
2022/12/20 15:54:58;;;;;;;10.68;6.75;;;;;;;8.47;100.00;100902.28;6160257;23;20430;-96
2022/12/20 15:57:23;;;;;;;12.18;7.40;;;;;;;8.49;100.00;100908.22;6141817;23;20005;-96
2022/12/20 15:59:50;;;;;;;18.40;8.30;;;;;;;8.49;100.00;100909.03;6176538;23;19997;-96
2022/12/20 16:02:27;;;;;;;13.55;8.20;;;;;;;8.53;100.00;100904.03;6137456;23;20005;-96
2022/12/20 16:04:54;;;;;;;16.02;9.65;;;;;;;8.55;100.00;100909.94;6134835;23;20085;-96
2022/12/20 16:07:20;;;;;;;15.68;8.32;;;;;;;8.58;100.00;100913.97;6155170;23;20001;-95
2022/12/20 16:09:45;;;;;;;14.90;8.45;;;;;;;8.46;100.00;100904.16;6127901;23;20012;-96
2022/12/20 16:12:17;;;;;;;11.07;7.90;;;;;;;8.52;100.00;100912.25;6161110;23;20441;-95
2022/12/20 16:14:48;;;;;;;19.38;8.90;;;;;;;8.43;100.00;100893.13;6172510;22;20100;-93
2022/12/20 16:17:14;;;;;;;16.52;8.65;;;;;;;8.52;100.00;100918.44;6183544;23;20005;-94
2022/12/20 16:19:43;;;;;;;17.03;10.50;;;;;;;8.51;100.00;100906.13;6184890;23;20001;-96
2022/12/20 16:22:17;;;;;;;17.85;9.20;;;;;;;8.50;100.00;100917.84;6182917;23;20445;-92
2022/12/20 16:24:44;;;;;;;14.82;8.77;;;;;;;8.49;100.00;100908.22;6181242;23;19997;-92
2022/12/20 16:27:09;;;;;;;17.15;8.73;;;;;;;8.53;100.00;100916.56;6183480;23;20036;-92
2022/12/20 16:29:35;;;;;;;13.77;8.17;;;;;;;8.52;100.00;100915.75;6184743;23;20048;-91
2022/12/20 16:32:00;;;;;;;14.97;8.03;;;;;;;8.48;100.00;100906.59;6188164;23;20001;-92
2022/12/20 16:34:25;;;;;;;16.92;9.35;;;;;;;8.48;100.00;100901.25;6156866;23;20012;-92
2022/12/20 16:36:52;;;;;;;15.60;7.77;;;;;;;8.49;100.00;100910.91;6189141;23;20005;-92
2022/12/20 16:39:21;;;;;;;13.95;8.30;;;;;;;8.50;100.00;100912.53;6194183;23;20077;-94
2022/12/20 16:41:46;;;;;;;18.95;8.32;;;;;;;8.51;100.00;100908.78;6188283;23;20016;-93
2022/12/20 16:44:13;;;;;;;13.80;7.90;;;;;;;8.52;100.00;100909.59;6190488;23;20033;-93
2022/12/20 16:46:41;;;;;;;15.63;7.68;;;;;;;8.49;100.00;100905.56;6191670;23;20016;-94
2022/12/20 16:49:10;;;;;;;17.00;9.23;;;;;;;8.51;100.00;100902.63;6186471;23;20033;-94
2022/12/20 16:51:43;;;;;;;14.23;8.40;;;;;;;8.48;100.00;100907.44;6184744;23;20024;-96
2022/12/20 16:54:13;;;;;;;13.90;7.87;;;;;;;8.51;100.00;100919.47;6185228;23;20049;-94
2022/12/20 16:56:39;;;;;;;19.47;9.10;;;;;;;8.49;100.00;100910.91;6189132;23;20237;-94
2022/12/20 16:59:05;;;;;;;16.52;9.13;;;;;;;8.50;100.00;100909.84;6184480;23;20055;-93
2022/12/20 17:01:37;;;;;;;16.90;8.32;;;;;;;8.50;100.00;100909.84;6183979;23;20001;-94
2022/12/20 17:04:04;;;;;;;15.05;9.15;;;;;;;8.48;100.00;100915.44;6185603;23;20016;-94
2022/12/20 17:06:29;;;;;;;22.35;10.55;;;;;;;8.48;100.00;100904.75;6185613;23;20422;-94
2022/12/20 17:08:55;;;;;;;18.33;9.70;;;;;;;8.46;100.00;100901.50;6157558;23;20001;-93
2022/12/20 17:11:26;;;;;;;14.85;9.15;;;;;;;8.46;100.00;100900.66;6184931;23;20004;-94
2022/12/20 17:13:54;;;;;;;19.57;9.50;;;;;;;8.46;100.00;100898.00;6183822;23;20027;-93
2022/12/20 17:16:20;;;;;;;15.70;8.77;;;;;;;8.43;100.00;100895.78;6187993;23;20770;-93
2022/12/20 17:18:48;;;;;;;15.85;8.95;;;;;;;8.46;100.00;100904.16;6184720;23;20001;-93
2022/12/20 17:21:47;;;;;;;18.58;9.25;;;;;;;8.45;100.00;100910.53;6183853;23;20001;-91
2022/12/20 18:01:41;;;;;;;19.85;10.15;;;;;;;8.37;100.00;100894.13;6209312;23;20027;-96